createdAt,value
2019-03-26T00:01:52.219Z,2.90
2019-03-26T00:04:20.598Z,2.90
2019-03-26T00:06:49.290Z,2.90
2019-03-26T00:09:17.708Z,2.90
2019-03-26T00:11:46.516Z,2.90
2019-03-26T00:14:14.856Z,2.80
2019-03-26T00:16:43.869Z,2.80
2019-03-26T00:19:12.614Z,2.90
2019-03-26T00:21:41.391Z,2.90
2019-03-26T00:24:09.810Z,2.90
2019-03-26T00:26:38.475Z,2.90
2019-03-26T00:29:09.942Z,3.00
2019-03-26T00:31:38.560Z,2.90
2019-03-26T00:34:18.621Z,3.00
2019-03-26T00:36:37.049Z,3.00
2019-03-26T00:39:06.958Z,3.10
2019-03-26T00:41:34.901Z,3.00
2019-03-26T00:44:03.197Z,3.00
2019-03-26T00:46:31.560Z,3.00
2019-03-26T00:49:00.229Z,3.00
2019-03-26T00:51:29.143Z,3.00
2019-03-26T00:53:57.477Z,3.00
2019-03-26T00:56:26.367Z,3.10
2019-03-26T00:58:55.149Z,3.10
2019-03-26T01:01:23.803Z,3.10
2019-03-26T01:03:54.993Z,3.20
2019-03-26T01:06:22.908Z,3.10
2019-03-26T01:08:51.283Z,3.20
2019-03-26T01:11:19.970Z,3.20
2019-03-26T01:13:48.377Z,3.20
2019-03-26T01:16:16.662Z,3.20
2019-03-26T01:18:45.372Z,3.30
2019-03-26T01:21:14.127Z,3.30
2019-03-26T01:23:42.730Z,3.30
2019-03-26T01:26:11.235Z,3.30
2019-03-26T01:28:39.877Z,3.20
2019-03-26T01:31:08.247Z,3.20
2019-03-26T01:33:37.016Z,3.20
2019-03-26T01:36:05.571Z,3.20
2019-03-26T01:38:33.903Z,3.10
2019-03-26T01:41:02.642Z,3.10
2019-03-26T01:43:31.290Z,3.20
2019-03-26T01:45:59.701Z,3.20
2019-03-26T01:48:27.989Z,3.20
2019-03-26T01:50:56.302Z,3.10
2019-03-26T01:53:24.659Z,3.20
2019-03-26T01:55:53.245Z,3.20
2019-03-26T01:58:22.036Z,3.10
2019-03-26T02:00:50.578Z,3.10
2019-03-26T02:03:19.329Z,3.10
2019-03-26T02:05:47.788Z,3.10
2019-03-26T02:08:16.134Z,3.10
2019-03-26T02:10:44.512Z,3.20
2019-03-26T02:13:13.421Z,3.10
2019-03-26T02:15:44.367Z,3.10
2019-03-26T02:18:13.480Z,3.10
2019-03-26T02:20:41.793Z,3.10
2019-03-26T02:23:10.279Z,3.10
2019-03-26T02:25:38.868Z,3.10
2019-03-26T02:28:07.207Z,3.20
2019-03-26T02:30:35.554Z,3.20
2019-03-26T02:33:05.020Z,3.10
2019-03-26T02:35:35.052Z,3.10
2019-03-26T02:38:03.474Z,3.10
2019-03-26T02:40:31.845Z,3.10
2019-03-26T02:43:00.219Z,3.10
2019-03-26T02:45:29.173Z,3.10
2019-03-26T02:47:57.639Z,3.20
2019-03-26T02:50:26.536Z,3.20
2019-03-26T02:52:56.499Z,3.20
2019-03-26T02:55:24.665Z,3.20
2019-03-26T02:57:52.964Z,3.20
2019-03-26T03:00:21.630Z,3.20
2019-03-26T03:02:50.100Z,3.20
2019-03-26T03:05:34.477Z,3.10
2019-03-26T03:07:48.832Z,3.10
2019-03-26T03:10:17.799Z,3.10
2019-03-26T03:13:01.825Z,3.10
2019-03-26T03:15:30.573Z,3.10
2019-03-26T03:17:59.109Z,3.10
2019-03-26T03:20:27.800Z,3.10
2019-03-26T03:22:57.020Z,3.10
2019-03-26T03:25:25.831Z,3.10
2019-03-26T03:27:54.192Z,3.00
2019-03-26T03:30:22.696Z,3.00
2019-03-26T03:32:51.301Z,3.00
2019-03-26T03:35:19.634Z,3.00
2019-03-26T03:37:48.227Z,3.00
2019-03-26T03:40:17.111Z,3.00
2019-03-26T03:42:46.461Z,3.00
2019-03-26T03:45:18.284Z,3.00
2019-03-26T03:47:47.331Z,3.00
2019-03-26T03:50:16.809Z,2.90
2019-03-26T03:52:45.328Z,2.90
2019-03-26T03:55:13.904Z,2.90
2019-03-26T03:57:42.337Z,2.90
2019-03-26T04:00:29.320Z,2.90
2019-03-26T04:02:58.059Z,3.00
2019-03-26T04:05:26.719Z,2.90
2019-03-26T04:07:55.581Z,2.90
2019-03-26T04:10:25.466Z,2.90
2019-03-26T04:12:59.153Z,3.00
2019-03-26T04:15:27.832Z,3.00
2019-03-26T04:17:56.517Z,3.00
2019-03-26T04:20:24.812Z,3.00
2019-03-26T04:22:53.525Z,3.00
2019-03-26T04:25:21.876Z,3.00
2019-03-26T04:27:50.195Z,3.00
2019-03-26T04:30:29.552Z,3.00
2019-03-26T04:32:58.145Z,2.90
2019-03-26T04:35:26.980Z,3.00
2019-03-26T04:37:56.187Z,3.00
2019-03-26T04:40:24.586Z,2.90
2019-03-26T04:42:52.986Z,2.90
2019-03-26T04:45:21.378Z,2.90
2019-03-26T04:47:50.103Z,2.90
2019-03-26T04:50:18.874Z,2.90
2019-03-26T04:52:47.382Z,3.00
2019-03-26T04:55:16.229Z,3.00
2019-03-26T04:57:44.899Z,3.00
2019-03-26T05:00:13.258Z,3.00
2019-03-26T05:02:41.954Z,3.00
2019-03-26T05:05:12.344Z,3.00
2019-03-26T05:07:40.517Z,3.00
2019-03-26T05:10:08.950Z,2.90
2019-03-26T05:12:48.648Z,2.90
2019-03-26T05:15:17.072Z,2.90
2019-03-26T05:17:45.796Z,3.00
2019-03-26T05:20:14.501Z,3.00
2019-03-26T05:22:43.240Z,3.00
2019-03-26T05:25:11.905Z,3.10
2019-03-26T05:27:45.684Z,3.10
2019-03-26T05:30:10.600Z,3.20
2019-03-26T05:32:39.062Z,3.10
2019-03-26T05:35:07.653Z,3.20
2019-03-26T05:37:36.394Z,3.20
2019-03-26T05:40:07.470Z,3.40
2019-03-26T05:42:36.546Z,3.50
2019-03-26T05:45:07.182Z,3.70
2019-03-26T05:47:35.547Z,3.70
2019-03-26T05:50:06.377Z,3.70
2019-03-26T05:52:34.969Z,3.70
2019-03-26T05:55:05.351Z,3.80
2019-03-26T06:00:21.754Z,3.80
2019-03-26T06:02:51.503Z,3.90
2019-03-26T06:05:19.886Z,3.90
2019-03-26T06:07:49.851Z,4.00
2019-03-26T06:10:17.469Z,4.10
2019-03-26T06:12:45.858Z,4.20
2019-03-26T06:15:15.438Z,4.10
2019-03-26T06:17:43.855Z,4.00
2019-03-26T06:20:14.023Z,4.10
2019-03-26T06:22:44.006Z,5.10
2019-03-26T06:25:11.745Z,5.30
2019-03-26T06:27:40.361Z,5.70
2019-03-26T06:30:09.428Z,6.10
2019-03-26T06:32:39.135Z,6.90
2019-03-26T06:35:09.590Z,7.80
2019-03-26T06:37:38.307Z,8.50
2019-03-26T06:40:08.145Z,9.20
2019-03-26T06:42:36.431Z,9.90
2019-03-26T06:45:07.968Z,9.80
2019-03-26T06:47:36.252Z,8.70
2019-03-26T06:50:07.813Z,7.90
2019-03-26T06:52:37.755Z,7.10
2019-03-26T06:55:06.996Z,6.60
2019-03-26T06:57:36.119Z,6.30
2019-03-26T07:00:07.285Z,6.00
2019-03-26T07:02:35.912Z,5.70
2019-03-26T07:05:04.652Z,5.30
2019-03-26T07:07:32.996Z,5.10
2019-03-26T07:10:01.451Z,5.00
2019-03-26T07:12:29.841Z,5.00
2019-03-26T07:14:58.260Z,4.90
2019-03-26T07:17:27.288Z,4.80
2019-03-26T07:19:55.803Z,4.80
2019-03-26T07:22:24.133Z,5.00
2019-03-26T07:24:52.464Z,5.30
2019-03-26T07:27:20.772Z,5.80
2019-03-26T07:29:49.108Z,6.90
2019-03-26T07:32:17.525Z,8.00
2019-03-26T07:34:45.896Z,7.80
2019-03-26T07:37:14.206Z,7.80
2019-03-26T07:39:42.503Z,7.80
2019-03-26T07:42:12.416Z,7.30
2019-03-26T07:44:40.151Z,6.90
2019-03-26T07:47:08.656Z,6.70
2019-03-26T07:49:37.018Z,6.60
2019-03-26T07:52:06.939Z,6.70
2019-03-26T07:54:35.497Z,6.80
2019-03-26T07:57:03.774Z,6.50
2019-03-26T07:59:32.124Z,6.30
2019-03-26T08:02:00.461Z,6.40
2019-03-26T08:04:28.744Z,6.50
2019-03-26T08:06:57.223Z,6.30
2019-03-26T08:09:25.622Z,6.00
2019-03-26T08:11:54.663Z,5.90
2019-03-26T08:14:23.734Z,5.80
2019-03-26T08:16:52.176Z,5.70
2019-03-26T08:19:20.472Z,5.50
2019-03-26T08:21:48.811Z,5.60
2019-03-26T08:24:17.246Z,5.50
2019-03-26T08:26:46.104Z,5.70
2019-03-26T08:29:14.418Z,5.90
2019-03-26T08:31:42.796Z,5.80
2019-03-26T08:34:11.226Z,5.90
2019-03-26T08:36:39.528Z,8.00
2019-03-26T08:39:07.842Z,11.60
2019-03-26T08:41:36.195Z,14.00
2019-03-26T08:44:04.736Z,13.20
2019-03-26T08:46:33.157Z,12.60
2019-03-26T08:49:01.860Z,11.70
2019-03-26T08:51:30.655Z,10.60
2019-03-26T08:53:59.120Z,9.20
2019-03-26T08:56:27.627Z,8.50
2019-03-26T08:58:55.946Z,7.90
2019-03-26T09:01:24.429Z,7.60
2019-03-26T09:03:52.757Z,7.90
2019-03-26T09:06:21.288Z,10.50
2019-03-26T09:08:49.652Z,12.20
2019-03-26T09:11:17.931Z,12.20
2019-03-26T09:13:46.214Z,14.60
2019-03-26T09:16:14.944Z,16.40
2019-03-26T09:18:43.349Z,15.90
2019-03-26T09:21:11.940Z,13.70
2019-03-26T09:23:40.323Z,12.10
2019-03-26T09:26:08.970Z,10.60
2019-03-26T09:28:37.294Z,10.20
2019-03-26T09:31:05.723Z,9.40
2019-03-26T09:33:34.258Z,9.00
2019-03-26T09:36:02.669Z,10.20
2019-03-26T09:38:38.938Z,11.50
2019-03-26T09:41:01.190Z,12.60
2019-03-26T09:43:29.456Z,12.30
2019-03-26T09:45:57.839Z,11.00
2019-03-26T09:48:26.255Z,10.20
2019-03-26T09:50:54.797Z,12.20
2019-03-26T09:53:23.237Z,15.80
2019-03-26T09:55:51.666Z,18.90
2019-03-26T09:58:20.052Z,17.10
2019-03-26T10:00:48.865Z,14.40
2019-03-26T10:03:17.968Z,11.80
2019-03-26T10:05:46.399Z,11.00
2019-03-26T10:08:17.663Z,11.10
2019-03-26T10:10:46.293Z,11.70
2019-03-26T10:13:14.703Z,11.30
2019-03-26T10:15:43.310Z,13.30
2019-03-26T10:18:11.626Z,13.90
2019-03-26T10:20:40.008Z,13.90
2019-03-26T10:23:08.703Z,13.00
2019-03-26T10:25:37.238Z,12.80
2019-03-26T10:28:06.103Z,12.50
2019-03-26T10:30:40.630Z,12.10
2019-03-26T10:33:09.065Z,11.90
2019-03-26T10:35:48.551Z,11.10
2019-03-26T10:38:18.133Z,10.60
2019-03-26T10:40:46.698Z,11.00
2019-03-26T10:43:15.198Z,12.00
2019-03-26T10:45:43.752Z,13.00
2019-03-26T10:48:12.296Z,13.80
2019-03-26T10:50:40.746Z,12.40
2019-03-26T10:53:09.137Z,12.30
2019-03-26T10:55:37.616Z,13.50
2019-03-26T10:58:05.952Z,15.40
2019-03-26T11:00:34.244Z,16.10
2019-03-26T11:03:02.582Z,14.30
2019-03-26T11:05:31.361Z,13.00
2019-03-26T11:07:59.698Z,12.20
2019-03-26T11:10:29.957Z,12.00
2019-03-26T11:12:58.375Z,11.30
2019-03-26T11:15:27.914Z,11.40
2019-03-26T11:17:56.522Z,11.80
2019-03-26T11:20:24.948Z,12.70
2019-03-26T11:22:54.229Z,14.50
2019-03-26T11:25:22.908Z,16.10
2019-03-26T11:27:52.917Z,16.90
2019-03-26T11:30:21.713Z,15.40
2019-03-26T11:32:50.194Z,14.40
2019-03-26T11:35:18.598Z,13.20
2019-03-26T11:37:47.029Z,13.90
2019-03-26T11:40:15.326Z,14.40
2019-03-26T11:42:43.715Z,13.60
2019-03-26T11:45:12.197Z,12.80
2019-03-26T11:47:40.573Z,12.20
2019-03-26T11:50:08.943Z,11.60
2019-03-26T11:52:37.861Z,12.00
2019-03-26T11:55:10.923Z,11.40
2019-03-26T11:57:39.466Z,11.90
2019-03-26T12:00:09.868Z,13.30
2019-03-26T12:02:38.243Z,12.70
2019-03-26T12:05:07.710Z,12.20
2019-03-26T12:07:36.825Z,11.50
2019-03-26T12:10:07.424Z,11.00
2019-03-26T12:12:35.838Z,11.00
2019-03-26T12:15:05.987Z,12.40
2019-03-26T12:17:33.828Z,14.00
2019-03-26T12:20:02.112Z,14.80
2019-03-26T12:22:31.542Z,14.80
2019-03-26T12:25:00.213Z,13.90
2019-03-26T12:27:28.933Z,12.70
2019-03-26T12:29:57.322Z,11.80
2019-03-26T12:32:25.690Z,11.80
2019-03-26T12:34:54.256Z,12.20
2019-03-26T12:37:22.679Z,12.60
2019-03-26T12:39:59.448Z,13.30
2019-03-26T12:42:24.520Z,13.70
2019-03-26T12:44:52.981Z,13.60
2019-03-26T12:47:21.401Z,13.10
2019-03-26T12:49:49.813Z,12.40
2019-03-26T12:52:18.447Z,11.60
2019-03-26T12:54:46.855Z,11.10
2019-03-26T12:57:15.337Z,10.80
2019-03-26T12:59:45.081Z,10.40
2019-03-26T13:02:13.544Z,10.30
2019-03-26T13:04:41.876Z,10.30
2019-03-26T13:07:10.430Z,10.40
2019-03-26T13:09:41.769Z,10.20
2019-03-26T13:12:10.308Z,10.00
2019-03-26T13:14:38.734Z,9.90
2019-03-26T13:17:07.020Z,9.70
2019-03-26T13:19:35.483Z,9.40
2019-03-26T13:22:03.958Z,9.10
2019-03-26T13:24:32.609Z,8.80
2019-03-26T13:27:00.963Z,8.60
2019-03-26T13:29:29.530Z,8.50
2019-03-26T13:31:57.899Z,8.50
2019-03-26T13:34:26.424Z,8.60
2019-03-26T13:36:54.842Z,8.60
2019-03-26T13:39:23.449Z,8.40
2019-03-26T13:41:51.804Z,8.30
2019-03-26T13:44:20.168Z,8.10
2019-03-26T13:46:51.591Z,8.00
2019-03-26T13:49:19.992Z,7.90
2019-03-26T13:51:48.366Z,7.80
2019-03-26T13:54:16.726Z,7.80
2019-03-26T13:56:45.315Z,7.70
2019-03-26T13:59:13.619Z,7.70
2019-03-26T14:01:41.913Z,7.60
2019-03-26T14:04:10.246Z,7.60
2019-03-26T14:06:38.577Z,7.70
2019-03-26T14:09:07.692Z,7.70
2019-03-26T14:11:36.042Z,7.70
2019-03-26T14:14:04.666Z,7.80
2019-03-26T14:16:32.936Z,7.80
2019-03-26T14:19:01.215Z,7.90
2019-03-26T14:21:29.818Z,7.90
2019-03-26T14:23:58.254Z,8.00
2019-03-26T14:26:26.569Z,8.00
2019-03-26T14:28:54.884Z,8.00
2019-03-26T14:31:23.224Z,7.90
2019-03-26T14:33:51.565Z,7.80
2019-03-26T14:36:19.982Z,7.80
2019-03-26T14:38:48.507Z,7.90
2019-03-26T14:41:16.797Z,8.00
2019-03-26T14:43:45.171Z,8.20
2019-03-26T14:46:13.572Z,8.10
2019-03-26T14:48:42.084Z,8.20
2019-03-26T14:51:10.453Z,8.40
2019-03-26T14:53:38.727Z,8.50
2019-03-26T14:56:07.265Z,8.60
2019-03-26T14:58:36.209Z,8.60
2019-03-26T15:01:06.230Z,8.50
2019-03-26T15:03:34.756Z,8.30
2019-03-26T15:06:04.574Z,8.00
2019-03-26T15:08:32.406Z,7.80
2019-03-26T15:11:07.929Z,7.60
2019-03-26T15:13:30.104Z,7.60
2019-03-26T15:15:59.937Z,7.60
2019-03-26T15:18:28.366Z,7.50
2019-03-26T15:20:58.497Z,7.50
2019-03-26T15:23:26.205Z,7.50
2019-03-26T15:25:54.563Z,7.50
2019-03-26T15:28:22.884Z,7.40
2019-03-26T15:30:51.421Z,7.40
2019-03-26T15:33:19.753Z,7.30
2019-03-26T15:35:48.214Z,7.20
2019-03-26T15:38:16.675Z,7.10
2019-03-26T15:40:45.016Z,7.20
2019-03-26T15:43:13.444Z,7.10
2019-03-26T15:45:41.856Z,7.10
2019-03-26T15:48:11.508Z,7.10
2019-03-26T15:50:43.856Z,7.10
2019-03-26T15:53:12.704Z,7.00
2019-03-26T15:55:41.144Z,6.90
2019-03-26T15:58:09.533Z,6.90
2019-03-26T16:00:37.973Z,6.90
2019-03-26T16:03:06.325Z,6.90
2019-03-26T16:05:34.702Z,6.80
2019-03-26T16:08:03.175Z,6.80
2019-03-26T16:10:31.564Z,6.70
2019-03-26T16:13:00.002Z,6.60
2019-03-26T16:15:28.460Z,6.60
2019-03-26T16:17:57.048Z,6.50
2019-03-26T16:20:25.435Z,6.40
2019-03-26T16:22:54.030Z,6.30
2019-03-26T16:25:22.366Z,6.30
2019-03-26T16:27:51.011Z,6.10
2019-03-26T16:30:21.071Z,6.00
2019-03-26T16:33:01.313Z,6.00
2019-03-26T16:35:29.722Z,6.00
2019-03-26T16:37:58.147Z,5.90
2019-03-26T16:40:26.564Z,5.80
2019-03-26T16:42:54.936Z,5.80
2019-03-26T16:45:24.441Z,5.70
2019-03-26T16:47:53.154Z,5.60
2019-03-26T16:50:21.445Z,5.50
2019-03-26T16:52:49.814Z,5.50
2019-03-26T16:55:18.246Z,5.50
2019-03-26T16:57:46.538Z,5.50
2019-03-26T17:00:14.891Z,5.40
2019-03-26T17:02:43.417Z,5.40
2019-03-26T17:05:11.751Z,5.30
2019-03-26T17:07:40.163Z,5.40
2019-03-26T17:10:08.510Z,5.30
2019-03-26T17:12:36.834Z,5.40
2019-03-26T17:15:07.513Z,5.30
2019-03-26T17:17:35.909Z,5.40
2019-03-26T17:20:05.748Z,5.40
2019-03-26T17:22:34.138Z,5.30
2019-03-26T17:25:02.479Z,5.40
2019-03-26T17:27:30.796Z,5.30
2019-03-26T17:29:59.138Z,5.30
2019-03-26T17:32:27.545Z,5.30
2019-03-26T17:34:55.970Z,5.30
2019-03-26T17:37:24.359Z,5.20
2019-03-26T17:39:52.669Z,5.20
2019-03-26T17:42:21.030Z,5.30
2019-03-26T17:44:49.304Z,5.30
2019-03-26T17:47:17.632Z,5.30
2019-03-26T17:49:46.007Z,5.30
2019-03-26T17:52:14.748Z,5.30
2019-03-26T17:54:43.112Z,5.30
2019-03-26T17:57:11.383Z,5.30
2019-03-26T17:59:39.709Z,5.30
2019-03-26T18:02:08.125Z,5.30
2019-03-26T18:04:36.531Z,5.40
2019-03-26T18:07:05.558Z,5.40
2019-03-26T18:09:34.117Z,5.30
2019-03-26T18:12:02.432Z,5.20
2019-03-26T18:14:30.763Z,5.20
2019-03-26T18:16:59.173Z,5.10
2019-03-26T18:19:27.485Z,5.10
2019-03-26T18:21:55.779Z,5.10
2019-03-26T18:24:24.071Z,5.00
2019-03-26T18:26:52.305Z,5.10
2019-03-26T18:29:20.729Z,5.00
2019-03-26T18:31:49.136Z,5.00
2019-03-26T18:34:18.333Z,5.00
2019-03-26T18:36:46.846Z,5.00
2019-03-26T18:39:15.127Z,5.00
2019-03-26T18:41:43.439Z,5.00
2019-03-26T18:44:11.718Z,5.00
2019-03-26T18:46:40.011Z,5.00
2019-03-26T18:49:08.415Z,5.00
2019-03-26T18:51:36.701Z,5.00
2019-03-26T18:54:05.057Z,4.90
2019-03-26T18:56:33.303Z,4.90
2019-03-26T18:59:01.628Z,4.90
2019-03-26T19:01:30.011Z,4.90
2019-03-26T19:03:58.236Z,4.90
2019-03-26T19:06:35.073Z,4.90
2019-03-26T19:09:04.307Z,4.90
2019-03-26T19:11:34.199Z,4.90
2019-03-26T19:14:02.654Z,4.90
2019-03-26T19:16:31.125Z,4.90
2019-03-26T19:18:59.566Z,4.90
2019-03-26T19:21:28.012Z,4.90
2019-03-26T19:24:04.129Z,4.90
2019-03-26T19:26:27.310Z,4.90
2019-03-26T19:28:55.814Z,5.00
2019-03-26T19:31:24.111Z,5.00
2019-03-26T19:33:52.442Z,5.00
2019-03-26T19:36:20.860Z,5.00
2019-03-26T19:38:49.238Z,5.00
2019-03-26T19:41:19.226Z,5.10
2019-03-26T19:44:00.755Z,5.10
2019-03-26T19:46:29.278Z,5.10
2019-03-26T19:48:57.613Z,5.10
2019-03-26T19:51:26.004Z,5.10
2019-03-26T19:53:54.589Z,5.20
2019-03-26T19:56:27.749Z,5.20
2019-03-26T19:58:56.486Z,5.20
2019-03-26T20:01:37.399Z,5.30
2019-03-26T20:04:06.041Z,5.30
2019-03-26T20:06:34.390Z,5.30
2019-03-26T20:09:05.031Z,5.30
2019-03-26T20:11:33.782Z,5.30
2019-03-26T20:14:03.005Z,5.40
2019-03-26T20:16:41.751Z,5.30
2019-03-26T20:19:02.284Z,5.30
2019-03-26T20:21:31.152Z,5.30
2019-03-26T20:24:00.600Z,5.30
2019-03-26T20:26:29.301Z,5.30
2019-03-26T20:29:03.323Z,5.40
2019-03-26T20:31:31.568Z,5.30
2019-03-26T20:34:00.389Z,5.30
2019-03-26T20:36:29.074Z,5.30
2019-03-26T20:39:02.444Z,5.30
2019-03-26T20:41:31.441Z,5.30
2019-03-26T20:43:59.896Z,5.30
2019-03-26T20:46:28.462Z,5.20
2019-03-26T20:48:57.494Z,5.30
2019-03-26T20:51:25.916Z,5.30
2019-03-26T20:53:54.367Z,5.30
2019-03-26T20:56:22.946Z,5.20
2019-03-26T20:58:57.974Z,5.10
2019-03-26T21:01:26.395Z,5.00
2019-03-26T21:03:54.867Z,4.90
2019-03-26T21:06:23.170Z,4.90
2019-03-26T21:08:52.547Z,4.80
2019-03-26T21:11:21.088Z,4.80
2019-03-26T21:13:50.850Z,4.70
2019-03-26T21:16:19.696Z,4.70
2019-03-26T21:18:48.898Z,4.70
2019-03-26T21:21:17.428Z,4.60
2019-03-26T21:23:45.730Z,4.60
2019-03-26T21:26:14.261Z,4.60
2019-03-26T21:28:42.656Z,4.50
2019-03-26T21:31:11.066Z,4.30
2019-03-26T21:33:39.643Z,4.10
2019-03-26T21:36:08.032Z,3.90
2019-03-26T21:38:36.268Z,3.80
2019-03-26T21:41:04.668Z,3.70
2019-03-26T21:43:33.041Z,3.60
2019-03-26T21:46:01.590Z,3.50
2019-03-26T21:48:29.987Z,3.50
2019-03-26T21:50:58.579Z,3.50
2019-03-26T21:53:26.893Z,3.40
2019-03-26T21:56:05.928Z,3.40
2019-03-26T21:58:26.322Z,3.30
2019-03-26T22:00:55.098Z,3.30
2019-03-26T22:03:23.826Z,3.30
2019-03-26T22:05:52.229Z,3.20
2019-03-26T22:08:20.559Z,3.20
2019-03-26T22:10:50.617Z,3.20
2019-03-26T22:13:19.141Z,3.20
2019-03-26T22:15:47.801Z,3.20
2019-03-26T22:18:16.489Z,3.10
2019-03-26T22:20:45.897Z,3.10
2019-03-26T22:23:15.318Z,3.10
2019-03-26T22:25:44.886Z,3.10
2019-03-26T22:28:13.512Z,3.10
2019-03-26T22:30:42.115Z,3.10
2019-03-26T22:33:10.468Z,3.10
2019-03-26T22:35:38.855Z,3.10
2019-03-26T22:38:07.442Z,3.10
2019-03-26T22:40:36.042Z,3.20
2019-03-26T22:43:04.599Z,3.10
2019-03-26T22:45:32.910Z,3.20
2019-03-26T22:48:01.337Z,3.10
2019-03-26T22:50:29.767Z,3.10
2019-03-26T22:52:58.219Z,3.10
2019-03-26T22:55:26.744Z,3.10
2019-03-26T22:57:55.164Z,3.10
2019-03-26T23:00:23.633Z,3.10
2019-03-26T23:02:52.149Z,3.10
2019-03-26T23:05:20.583Z,3.10
2019-03-26T23:07:50.324Z,3.10
2019-03-26T23:10:18.103Z,3.10
2019-03-26T23:12:46.632Z,3.10
2019-03-26T23:15:21.462Z,3.10
2019-03-26T23:17:50.098Z,3.00
2019-03-26T23:20:18.591Z,3.00
2019-03-26T23:22:47.094Z,3.00
2019-03-26T23:25:15.701Z,3.00
2019-03-26T23:27:44.080Z,3.00
2019-03-26T23:30:12.527Z,3.00
2019-03-26T23:32:41.141Z,3.00
2019-03-26T23:35:09.619Z,3.00
2019-03-26T23:37:37.946Z,2.90
2019-03-26T23:40:06.293Z,2.90
2019-03-26T23:42:34.635Z,2.90
2019-03-26T23:45:04.221Z,2.90
2019-03-26T23:47:32.794Z,2.90
2019-03-26T23:50:01.459Z,2.80
2019-03-26T23:52:30.131Z,2.70
2019-03-26T23:54:58.694Z,2.70
2019-03-26T23:57:26.993Z,2.70
2019-03-26T23:59:55.387Z,2.60
